sensor_id;sensor_type;location;lat;lon;timestamp;P1;durP1;ratioP1;P2;durP2;ratioP2
18526;SDS011;9393;42.158;24.748;2022-10-22T00:00:47;30.33;;;17.57;;
18526;SDS011;9393;42.158;24.748;2022-10-22T00:03:51;27.50;;;16.97;;
18526;SDS011;9393;42.158;24.748;2022-10-22T00:06:54;30.70;;;17.03;;
18526;SDS011;9393;42.158;24.748;2022-10-22T00:09:58;30.13;;;17.17;;
18526;SDS011;9393;42.158;24.748;2022-10-22T00:13:01;28.10;;;17.20;;
18526;SDS011;9393;42.158;24.748;2022-10-22T00:16:06;25.53;;;16.60;;
18526;SDS011;9393;42.158;24.748;2022-10-22T00:19:09;27.97;;;17.43;;
18526;SDS011;9393;42.158;24.748;2022-10-22T00:22:13;26.03;;;17.10;;
18526;SDS011;9393;42.158;24.748;2022-10-22T00:25:17;27.17;;;15.43;;
18526;SDS011;9393;42.158;24.748;2022-10-22T00:28:20;26.63;;;17.33;;
18526;SDS011;9393;42.158;24.748;2022-10-22T00:31:25;25.80;;;15.80;;
18526;SDS011;9393;42.158;24.748;2022-10-22T00:34:28;26.47;;;16.30;;
18526;SDS011;9393;42.158;24.748;2022-10-22T00:37:31;25.33;;;15.83;;
18526;SDS011;9393;42.158;24.748;2022-10-22T00:40:35;26.03;;;16.40;;
18526;SDS011;9393;42.158;24.748;2022-10-22T00:46:59;24.10;;;16.03;;
18526;SDS011;9393;42.158;24.748;2022-10-22T00:50:02;26.47;;;16.23;;
18526;SDS011;9393;42.158;24.748;2022-10-22T00:53:09;22.53;;;16.20;;
18526;SDS011;9393;42.158;24.748;2022-10-22T00:56:15;25.10;;;16.13;;
18526;SDS011;9393;42.158;24.748;2022-10-22T00:59:19;22.73;;;15.90;;
18526;SDS011;9393;42.158;24.748;2022-10-22T01:02:23;26.07;;;16.03;;
18526;SDS011;9393;42.158;24.748;2022-10-22T01:05:27;25.03;;;16.07;;
18526;SDS011;9393;42.158;24.748;2022-10-22T01:08:45;27.70;;;16.87;;
18526;SDS011;9393;42.158;24.748;2022-10-22T01:12:00;31.90;;;17.73;;
18526;SDS011;9393;42.158;24.748;2022-10-22T01:15:14;24.53;;;15.97;;
18526;SDS011;9393;42.158;24.748;2022-10-22T01:18:27;27.23;;;16.90;;
18526;SDS011;9393;42.158;24.748;2022-10-22T01:21:39;26.40;;;16.70;;
18526;SDS011;9393;42.158;24.748;2022-10-22T01:24:49;31.00;;;17.10;;
18526;SDS011;9393;42.158;24.748;2022-10-22T01:28:00;32.73;;;16.83;;
18526;SDS011;9393;42.158;24.748;2022-10-22T01:31:14;32.57;;;16.77;;
18526;SDS011;9393;42.158;24.748;2022-10-22T01:34:18;27.37;;;17.33;;
18526;SDS011;9393;42.158;24.748;2022-10-22T01:37:24;25.80;;;17.13;;
18526;SDS011;9393;42.158;24.748;2022-10-22T01:40:30;26.93;;;17.00;;
18526;SDS011;9393;42.158;24.748;2022-10-22T01:43:34;26.97;;;16.17;;
18526;SDS011;9393;42.158;24.748;2022-10-22T01:46:39;25.37;;;16.50;;
18526;SDS011;9393;42.158;24.748;2022-10-22T01:49:52;26.77;;;16.40;;
18526;SDS011;9393;42.158;24.748;2022-10-22T01:53:11;37.80;;;15.47;;
18526;SDS011;9393;42.158;24.748;2022-10-22T01:56:24;27.20;;;18.03;;
18526;SDS011;9393;42.158;24.748;2022-10-22T01:59:43;26.83;;;17.07;;
18526;SDS011;9393;42.158;24.748;2022-10-22T02:02:57;26.30;;;16.83;;
18526;SDS011;9393;42.158;24.748;2022-10-22T02:06:04;28.73;;;16.43;;
18526;SDS011;9393;42.158;24.748;2022-10-22T02:09:14;30.00;;;16.60;;
18526;SDS011;9393;42.158;24.748;2022-10-22T02:12:21;25.90;;;16.03;;
18526;SDS011;9393;42.158;24.748;2022-10-22T02:15:27;30.53;;;17.07;;
18526;SDS011;9393;42.158;24.748;2022-10-22T02:18:34;25.37;;;16.33;;
18526;SDS011;9393;42.158;24.748;2022-10-22T02:21:41;27.03;;;16.40;;
18526;SDS011;9393;42.158;24.748;2022-10-22T02:24:45;27.53;;;16.90;;
18526;SDS011;9393;42.158;24.748;2022-10-22T02:27:51;22.57;;;15.70;;
18526;SDS011;9393;42.158;24.748;2022-10-22T02:30:59;28.63;;;16.27;;
18526;SDS011;9393;42.158;24.748;2022-10-22T02:34:10;25.37;;;16.50;;
18526;SDS011;9393;42.158;24.748;2022-10-22T02:37:16;24.00;;;15.60;;
18526;SDS011;9393;42.158;24.748;2022-10-22T02:40:20;28.77;;;16.83;;
18526;SDS011;9393;42.158;24.748;2022-10-22T02:43:24;25.30;;;17.10;;
18526;SDS011;9393;42.158;24.748;2022-10-22T02:46:27;27.50;;;17.00;;
18526;SDS011;9393;42.158;24.748;2022-10-22T02:49:32;20.77;;;15.50;;
18526;SDS011;9393;42.158;24.748;2022-10-22T02:52:35;25.10;;;15.30;;
18526;SDS011;9393;42.158;24.748;2022-10-22T02:55:39;23.37;;;16.07;;
18526;SDS011;9393;42.158;24.748;2022-10-22T02:58:42;21.43;;;15.90;;
18526;SDS011;9393;42.158;24.748;2022-10-22T03:01:46;30.53;;;15.93;;
18526;SDS011;9393;42.158;24.748;2022-10-22T03:04:50;23.67;;;15.90;;
18526;SDS011;9393;42.158;24.748;2022-10-22T03:07:53;24.80;;;16.33;;
18526;SDS011;9393;42.158;24.748;2022-10-22T03:10:57;27.50;;;16.43;;
18526;SDS011;9393;42.158;24.748;2022-10-22T03:14:00;23.67;;;15.30;;
18526;SDS011;9393;42.158;24.748;2022-10-22T03:17:03;24.23;;;15.10;;
18526;SDS011;9393;42.158;24.748;2022-10-22T03:20:08;26.80;;;15.73;;
18526;SDS011;9393;42.158;24.748;2022-10-22T03:23:12;24.73;;;15.80;;
18526;SDS011;9393;42.158;24.748;2022-10-22T03:26:20;26.30;;;16.73;;
18526;SDS011;9393;42.158;24.748;2022-10-22T03:29:24;21.43;;;15.33;;
18526;SDS011;9393;42.158;24.748;2022-10-22T03:32:28;21.90;;;15.73;;
18526;SDS011;9393;42.158;24.748;2022-10-22T03:35:33;23.13;;;15.90;;
18526;SDS011;9393;42.158;24.748;2022-10-22T03:38:42;24.37;;;15.23;;
18526;SDS011;9393;42.158;24.748;2022-10-22T03:41:45;26.17;;;15.97;;
18526;SDS011;9393;42.158;24.748;2022-10-22T03:44:50;26.87;;;16.80;;
18526;SDS011;9393;42.158;24.748;2022-10-22T03:47:54;25.00;;;16.00;;
18526;SDS011;9393;42.158;24.748;2022-10-22T03:50:58;29.23;;;16.37;;
18526;SDS011;9393;42.158;24.748;2022-10-22T03:54:02;26.60;;;16.40;;
18526;SDS011;9393;42.158;24.748;2022-10-22T03:57:06;26.27;;;15.67;;
18526;SDS011;9393;42.158;24.748;2022-10-22T04:00:10;26.70;;;17.00;;
18526;SDS011;9393;42.158;24.748;2022-10-22T04:03:13;29.10;;;16.43;;
18526;SDS011;9393;42.158;24.748;2022-10-22T04:06:18;27.93;;;16.43;;
18526;SDS011;9393;42.158;24.748;2022-10-22T04:09:21;30.10;;;17.60;;
18526;SDS011;9393;42.158;24.748;2022-10-22T04:12:24;26.10;;;17.20;;
18526;SDS011;9393;42.158;24.748;2022-10-22T04:15:28;27.40;;;16.80;;
18526;SDS011;9393;42.158;24.748;2022-10-22T04:18:31;28.27;;;16.23;;
18526;SDS011;9393;42.158;24.748;2022-10-22T04:21:36;28.57;;;17.60;;
18526;SDS011;9393;42.158;24.748;2022-10-22T04:24:39;31.90;;;17.27;;
18526;SDS011;9393;42.158;24.748;2022-10-22T04:27:42;29.33;;;18.37;;
18526;SDS011;9393;42.158;24.748;2022-10-22T04:30:45;32.97;;;17.53;;
18526;SDS011;9393;42.158;24.748;2022-10-22T04:33:51;28.60;;;16.70;;
18526;SDS011;9393;42.158;24.748;2022-10-22T04:36:56;27.63;;;17.10;;
18526;SDS011;9393;42.158;24.748;2022-10-22T04:39:59;24.70;;;16.83;;
18526;SDS011;9393;42.158;24.748;2022-10-22T04:43:03;33.87;;;17.43;;
18526;SDS011;9393;42.158;24.748;2022-10-22T04:46:06;29.80;;;17.23;;
18526;SDS011;9393;42.158;24.748;2022-10-22T04:49:10;27.73;;;17.70;;
18526;SDS011;9393;42.158;24.748;2022-10-22T04:52:15;24.80;;;16.67;;
18526;SDS011;9393;42.158;24.748;2022-10-22T04:55:18;22.40;;;16.10;;
18526;SDS011;9393;42.158;24.748;2022-10-22T04:58:21;26.67;;;16.17;;
18526;SDS011;9393;42.158;24.748;2022-10-22T05:01:25;24.13;;;15.40;;
18526;SDS011;9393;42.158;24.748;2022-10-22T05:04:30;25.00;;;16.07;;
18526;SDS011;9393;42.158;24.748;2022-10-22T05:07:35;26.23;;;15.97;;
18526;SDS011;9393;42.158;24.748;2022-10-22T05:10:38;27.83;;;15.73;;
18526;SDS011;9393;42.158;24.748;2022-10-22T05:13:41;22.93;;;15.20;;
18526;SDS011;9393;42.158;24.748;2022-10-22T05:16:44;25.30;;;15.67;;
18526;SDS011;9393;42.158;24.748;2022-10-22T05:19:49;27.23;;;15.17;;
18526;SDS011;9393;42.158;24.748;2022-10-22T05:22:54;25.23;;;14.53;;
18526;SDS011;9393;42.158;24.748;2022-10-22T05:26:00;23.83;;;15.37;;
18526;SDS011;9393;42.158;24.748;2022-10-22T05:29:04;40.23;;;19.57;;
18526;SDS011;9393;42.158;24.748;2022-10-22T05:32:07;35.90;;;18.80;;
18526;SDS011;9393;42.158;24.748;2022-10-22T05:35:10;40.97;;;22.73;;
18526;SDS011;9393;42.158;24.748;2022-10-22T05:38:15;46.10;;;25.90;;
18526;SDS011;9393;42.158;24.748;2022-10-22T05:41:19;41.70;;;23.13;;
18526;SDS011;9393;42.158;24.748;2022-10-22T05:44:24;42.67;;;22.23;;
18526;SDS011;9393;42.158;24.748;2022-10-22T05:47:28;35.60;;;20.03;;
18526;SDS011;9393;42.158;24.748;2022-10-22T05:50:31;40.00;;;21.60;;
18526;SDS011;9393;42.158;24.748;2022-10-22T05:53:39;40.67;;;21.83;;
18526;SDS011;9393;42.158;24.748;2022-10-22T05:56:44;36.80;;;21.47;;
18526;SDS011;9393;42.158;24.748;2022-10-22T05:59:48;32.07;;;19.97;;
18526;SDS011;9393;42.158;24.748;2022-10-22T06:02:51;35.13;;;19.57;;
18526;SDS011;9393;42.158;24.748;2022-10-22T06:05:54;23.60;;;14.77;;
18526;SDS011;9393;42.158;24.748;2022-10-22T06:09:00;22.17;;;15.47;;
18526;SDS011;9393;42.158;24.748;2022-10-22T06:12:06;30.67;;;15.73;;
18526;SDS011;9393;42.158;24.748;2022-10-22T06:15:11;25.13;;;15.23;;
18526;SDS011;9393;42.158;24.748;2022-10-22T06:18:16;24.47;;;15.07;;
18526;SDS011;9393;42.158;24.748;2022-10-22T06:21:19;26.80;;;14.87;;
18526;SDS011;9393;42.158;24.748;2022-10-22T06:24:24;22.30;;;13.47;;
18526;SDS011;9393;42.158;24.748;2022-10-22T06:27:27;18.70;;;12.53;;
18526;SDS011;9393;42.158;24.748;2022-10-22T06:30:30;22.33;;;13.13;;
18526;SDS011;9393;42.158;24.748;2022-10-22T06:33:34;27.20;;;12.57;;
18526;SDS011;9393;42.158;24.748;2022-10-22T06:36:42;18.73;;;12.27;;
18526;SDS011;9393;42.158;24.748;2022-10-22T06:39:47;19.90;;;12.17;;
18526;SDS011;9393;42.158;24.748;2022-10-22T06:42:51;19.13;;;12.70;;
18526;SDS011;9393;42.158;24.748;2022-10-22T06:45:57;20.23;;;13.87;;
18526;SDS011;9393;42.158;24.748;2022-10-22T06:49:01;26.27;;;13.97;;
18526;SDS011;9393;42.158;24.748;2022-10-22T06:52:06;26.67;;;14.47;;
18526;SDS011;9393;42.158;24.748;2022-10-22T06:55:10;20.73;;;12.90;;
18526;SDS011;9393;42.158;24.748;2022-10-22T06:58:14;21.83;;;12.13;;
18526;SDS011;9393;42.158;24.748;2022-10-22T07:01:18;17.60;;;10.70;;
18526;SDS011;9393;42.158;24.748;2022-10-22T07:04:23;17.27;;;10.43;;
18526;SDS011;9393;42.158;24.748;2022-10-22T07:07:26;21.13;;;12.20;;
18526;SDS011;9393;42.158;24.748;2022-10-22T07:10:31;22.00;;;11.83;;
18526;SDS011;9393;42.158;24.748;2022-10-22T07:13:34;22.23;;;12.27;;
18526;SDS011;9393;42.158;24.748;2022-10-22T07:16:38;22.07;;;12.67;;
18526;SDS011;9393;42.158;24.748;2022-10-22T07:19:42;21.83;;;12.90;;
18526;SDS011;9393;42.158;24.748;2022-10-22T07:22:51;21.30;;;13.20;;
18526;SDS011;9393;42.158;24.748;2022-10-22T07:25:56;22.70;;;14.37;;
18526;SDS011;9393;42.158;24.748;2022-10-22T07:28:59;21.07;;;14.07;;
18526;SDS011;9393;42.158;24.748;2022-10-22T07:32:03;24.93;;;13.97;;
18526;SDS011;9393;42.158;24.748;2022-10-22T07:35:07;31.50;;;15.20;;
18526;SDS011;9393;42.158;24.748;2022-10-22T07:38:10;20.63;;;13.83;;
18526;SDS011;9393;42.158;24.748;2022-10-22T07:41:15;18.33;;;12.73;;
18526;SDS011;9393;42.158;24.748;2022-10-22T07:44:18;20.80;;;12.93;;
18526;SDS011;9393;42.158;24.748;2022-10-22T07:47:22;21.00;;;13.90;;
18526;SDS011;9393;42.158;24.748;2022-10-22T07:50:25;16.97;;;12.80;;
18526;SDS011;9393;42.158;24.748;2022-10-22T07:53:28;16.60;;;11.63;;
18526;SDS011;9393;42.158;24.748;2022-10-22T07:56:33;17.23;;;11.63;;
18526;SDS011;9393;42.158;24.748;2022-10-22T07:59:36;15.03;;;11.30;;
18526;SDS011;9393;42.158;24.748;2022-10-22T08:02:39;20.77;;;11.57;;
18526;SDS011;9393;42.158;24.748;2022-10-22T08:05:43;18.67;;;11.00;;
18526;SDS011;9393;42.158;24.748;2022-10-22T08:08:47;15.27;;;10.60;;
18526;SDS011;9393;42.158;24.748;2022-10-22T08:11:51;17.77;;;10.60;;
18526;SDS011;9393;42.158;24.748;2022-10-22T08:14:55;15.73;;;10.13;;
18526;SDS011;9393;42.158;24.748;2022-10-22T08:17:58;17.30;;;9.47;;
18526;SDS011;9393;42.158;24.748;2022-10-22T08:21:02;11.60;;;9.20;;
18526;SDS011;9393;42.158;24.748;2022-10-22T08:24:06;13.83;;;9.63;;
18526;SDS011;9393;42.158;24.748;2022-10-22T08:27:11;15.17;;;9.40;;
18526;SDS011;9393;42.158;24.748;2022-10-22T08:30:14;17.63;;;8.83;;
18526;SDS011;9393;42.158;24.748;2022-10-22T08:33:17;14.00;;;8.73;;
18526;SDS011;9393;42.158;24.748;2022-10-22T08:36:20;15.10;;;7.97;;
18526;SDS011;9393;42.158;24.748;2022-10-22T08:39:24;12.00;;;7.80;;
18526;SDS011;9393;42.158;24.748;2022-10-22T08:42:43;13.03;;;8.40;;
18526;SDS011;9393;42.158;24.748;2022-10-22T08:46:04;16.97;;;9.13;;
18526;SDS011;9393;42.158;24.748;2022-10-22T08:49:19;15.93;;;8.93;;
18526;SDS011;9393;42.158;24.748;2022-10-22T08:52:24;13.47;;;8.03;;
18526;SDS011;9393;42.158;24.748;2022-10-22T08:55:28;15.63;;;8.77;;
18526;SDS011;9393;42.158;24.748;2022-10-22T08:58:41;13.47;;;9.00;;
18526;SDS011;9393;42.158;24.748;2022-10-22T09:01:51;15.90;;;8.90;;
18526;SDS011;9393;42.158;24.748;2022-10-22T09:04:57;20.53;;;8.90;;
18526;SDS011;9393;42.158;24.748;2022-10-22T09:08:16;14.93;;;8.53;;
18526;SDS011;9393;42.158;24.748;2022-10-22T09:11:22;16.30;;;8.40;;
18526;SDS011;9393;42.158;24.748;2022-10-22T09:14:29;13.03;;;8.83;;
18526;SDS011;9393;42.158;24.748;2022-10-22T09:17:33;11.37;;;8.20;;
18526;SDS011;9393;42.158;24.748;2022-10-22T09:20:44;21.23;;;9.40;;
18526;SDS011;9393;42.158;24.748;2022-10-22T09:27:14;20.27;;;12.47;;
18526;SDS011;9393;42.158;24.748;2022-10-22T09:30:20;14.80;;;9.93;;
18526;SDS011;9393;42.158;24.748;2022-10-22T09:33:25;16.53;;;10.07;;
18526;SDS011;9393;42.158;24.748;2022-10-22T09:36:31;23.83;;;11.70;;
18526;SDS011;9393;42.158;24.748;2022-10-22T09:39:36;16.77;;;10.23;;
18526;SDS011;9393;42.158;24.748;2022-10-22T09:42:42;20.17;;;9.40;;
18526;SDS011;9393;42.158;24.748;2022-10-22T09:45:47;17.13;;;10.40;;
18526;SDS011;9393;42.158;24.748;2022-10-22T09:48:59;17.40;;;10.77;;
18526;SDS011;9393;42.158;24.748;2022-10-22T09:52:06;19.30;;;9.90;;
18526;SDS011;9393;42.158;24.748;2022-10-22T09:55:29;16.77;;;8.93;;
18526;SDS011;9393;42.158;24.748;2022-10-22T09:58:39;17.10;;;9.20;;
18526;SDS011;9393;42.158;24.748;2022-10-22T10:01:45;13.03;;;9.33;;
18526;SDS011;9393;42.158;24.748;2022-10-22T10:04:48;13.37;;;9.33;;
18526;SDS011;9393;42.158;24.748;2022-10-22T10:07:53;18.33;;;11.10;;
18526;SDS011;9393;42.158;24.748;2022-10-22T10:10:58;14.73;;;10.00;;
18526;SDS011;9393;42.158;24.748;2022-10-22T10:14:07;17.90;;;10.23;;
18526;SDS011;9393;42.158;24.748;2022-10-22T10:17:20;18.70;;;10.43;;
18526;SDS011;9393;42.158;24.748;2022-10-22T10:20:33;16.52;;;9.07;;
18526;SDS011;9393;42.158;24.748;2022-10-22T10:23:45;16.80;;;9.70;;
18526;SDS011;9393;42.158;24.748;2022-10-22T10:26:57;19.73;;;9.30;;
18526;SDS011;9393;42.158;24.748;2022-10-22T10:30:05;23.05;;;10.02;;
18526;SDS011;9393;42.158;24.748;2022-10-22T10:33:17;13.95;;;9.35;;
18526;SDS011;9393;42.158;24.748;2022-10-22T10:36:26;14.23;;;8.40;;
18526;SDS011;9393;42.158;24.748;2022-10-22T10:39:39;18.90;;;8.80;;
18526;SDS011;9393;42.158;24.748;2022-10-22T10:42:59;13.18;;;8.15;;
18526;SDS011;9393;42.158;24.748;2022-10-22T10:46:11;16.10;;;8.65;;
18526;SDS011;9393;42.158;24.748;2022-10-22T10:49:23;15.82;;;7.95;;
18526;SDS011;9393;42.158;24.748;2022-10-22T10:52:29;13.02;;;8.77;;
18526;SDS011;9393;42.158;24.748;2022-10-22T10:55:40;15.32;;;8.50;;
18526;SDS011;9393;42.158;24.748;2022-10-22T10:58:56;11.50;;;8.35;;
18526;SDS011;9393;42.158;24.748;2022-10-22T11:02:12;12.43;;;7.25;;
18526;SDS011;9393;42.158;24.748;2022-10-22T11:05:38;10.30;;;6.47;;
18526;SDS011;9393;42.158;24.748;2022-10-22T11:08:46;14.30;;;8.20;;
18526;SDS011;9393;42.158;24.748;2022-10-22T11:11:56;10.40;;;6.85;;
18526;SDS011;9393;42.158;24.748;2022-10-22T11:15:06;10.77;;;7.25;;
18526;SDS011;9393;42.158;24.748;2022-10-22T11:18:19;12.27;;;7.38;;
18526;SDS011;9393;42.158;24.748;2022-10-22T11:21:28;14.40;;;8.75;;
18526;SDS011;9393;42.158;24.748;2022-10-22T11:24:36;18.05;;;8.27;;
18526;SDS011;9393;42.158;24.748;2022-10-22T11:27:44;13.20;;;7.82;;
18526;SDS011;9393;42.158;24.748;2022-10-22T11:30:55;12.23;;;7.85;;
18526;SDS011;9393;42.158;24.748;2022-10-22T11:34:04;11.88;;;8.23;;
18526;SDS011;9393;42.158;24.748;2022-10-22T11:37:35;12.32;;;7.95;;
18526;SDS011;9393;42.158;24.748;2022-10-22T11:40:42;13.65;;;6.85;;
18526;SDS011;9393;42.158;24.748;2022-10-22T11:44:04;16.75;;;8.18;;
18526;SDS011;9393;42.158;24.748;2022-10-22T11:47:15;13.02;;;7.70;;
18526;SDS011;9393;42.158;24.748;2022-10-22T11:50:21;14.88;;;8.10;;
18526;SDS011;9393;42.158;24.748;2022-10-22T11:53:29;15.27;;;7.93;;
18526;SDS011;9393;42.158;24.748;2022-10-22T11:56:37;11.98;;;7.07;;
18526;SDS011;9393;42.158;24.748;2022-10-22T11:59:43;8.43;;;6.53;;
18526;SDS011;9393;42.158;24.748;2022-10-22T12:03:00;11.73;;;7.90;;
18526;SDS011;9393;42.158;24.748;2022-10-22T12:06:15;11.02;;;7.00;;
18526;SDS011;9393;42.158;24.748;2022-10-22T12:09:23;13.77;;;6.88;;
18526;SDS011;9393;42.158;24.748;2022-10-22T12:12:33;10.77;;;6.97;;
18526;SDS011;9393;42.158;24.748;2022-10-22T12:15:45;11.88;;;7.95;;
18526;SDS011;9393;42.158;24.748;2022-10-22T12:18:54;13.70;;;7.20;;
18526;SDS011;9393;42.158;24.748;2022-10-22T12:22:09;15.05;;;7.50;;
18526;SDS011;9393;42.158;24.748;2022-10-22T12:25:21;13.30;;;7.40;;
18526;SDS011;9393;42.158;24.748;2022-10-22T12:28:26;9.98;;;7.60;;
18526;SDS011;9393;42.158;24.748;2022-10-22T12:31:34;10.30;;;7.25;;
18526;SDS011;9393;42.158;24.748;2022-10-22T12:34:43;12.95;;;7.97;;
18526;SDS011;9393;42.158;24.748;2022-10-22T12:37:54;13.48;;;7.03;;
18526;SDS011;9393;42.158;24.748;2022-10-22T12:41:00;17.58;;;7.18;;
18526;SDS011;9393;42.158;24.748;2022-10-22T12:44:03;12.38;;;7.70;;
18526;SDS011;9393;42.158;24.748;2022-10-22T12:47:10;12.98;;;7.85;;
18526;SDS011;9393;42.158;24.748;2022-10-22T12:50:17;12.23;;;8.27;;
18526;SDS011;9393;42.158;24.748;2022-10-22T12:53:23;13.18;;;7.95;;
18526;SDS011;9393;42.158;24.748;2022-10-22T12:56:31;11.25;;;6.93;;
18526;SDS011;9393;42.158;24.748;2022-10-22T12:59:36;12.75;;;7.28;;
18526;SDS011;9393;42.158;24.748;2022-10-22T13:02:40;12.52;;;7.78;;
18526;SDS011;9393;42.158;24.748;2022-10-22T13:05:46;11.70;;;7.85;;
18526;SDS011;9393;42.158;24.748;2022-10-22T13:08:54;18.40;;;7.57;;
18526;SDS011;9393;42.158;24.748;2022-10-22T13:12:06;14.00;;;7.50;;
18526;SDS011;9393;42.158;24.748;2022-10-22T13:15:19;10.55;;;6.45;;
18526;SDS011;9393;42.158;24.748;2022-10-22T13:18:24;13.98;;;8.30;;
18526;SDS011;9393;42.158;24.748;2022-10-22T13:21:36;11.60;;;8.18;;
18526;SDS011;9393;42.158;24.748;2022-10-22T13:24:47;10.82;;;8.10;;
18526;SDS011;9393;42.158;24.748;2022-10-22T13:27:54;11.30;;;7.15;;
18526;SDS011;9393;42.158;24.748;2022-10-22T13:30:59;15.40;;;7.95;;
18526;SDS011;9393;42.158;24.748;2022-10-22T13:34:11;12.20;;;7.93;;
18526;SDS011;9393;42.158;24.748;2022-10-22T13:37:18;13.25;;;7.60;;
18526;SDS011;9393;42.158;24.748;2022-10-22T13:40:21;12.80;;;7.43;;
18526;SDS011;9393;42.158;24.748;2022-10-22T13:43:26;15.85;;;8.02;;
18526;SDS011;9393;42.158;24.748;2022-10-22T13:54:47;12.25;;;7.82;;
18526;SDS011;9393;42.158;24.748;2022-10-22T13:57:51;12.17;;;8.03;;
18526;SDS011;9393;42.158;24.748;2022-10-22T14:00:58;11.80;;;7.93;;
18526;SDS011;9393;42.158;24.748;2022-10-22T14:04:04;14.50;;;8.00;;
18526;SDS011;9393;42.158;24.748;2022-10-22T14:07:10;16.17;;;7.70;;
18526;SDS011;9393;42.158;24.748;2022-10-22T14:10:17;11.35;;;7.40;;
18526;SDS011;9393;42.158;24.748;2022-10-22T14:13:22;10.98;;;7.65;;
18526;SDS011;9393;42.158;24.748;2022-10-22T14:16:28;10.20;;;7.38;;
18526;SDS011;9393;42.158;24.748;2022-10-22T14:19:35;10.55;;;7.18;;
18526;SDS011;9393;42.158;24.748;2022-10-22T14:22:38;15.25;;;7.63;;
18526;SDS011;9393;42.158;24.748;2022-10-22T14:25:42;13.57;;;8.57;;
18526;SDS011;9393;42.158;24.748;2022-10-22T14:28:46;16.63;;;8.32;;
18526;SDS011;9393;42.158;24.748;2022-10-22T14:32:12;10.30;;;8.32;;
18526;SDS011;9393;42.158;24.748;2022-10-22T14:35:18;17.65;;;11.07;;
18526;SDS011;9393;42.158;24.748;2022-10-22T14:38:23;16.17;;;8.93;;
18526;SDS011;9393;42.158;24.748;2022-10-22T14:41:27;14.55;;;8.95;;
18526;SDS011;9393;42.158;24.748;2022-10-22T14:44:31;16.17;;;9.68;;
18526;SDS011;9393;42.158;24.748;2022-10-22T14:47:36;18.35;;;8.35;;
18526;SDS011;9393;42.158;24.748;2022-10-22T14:50:40;11.73;;;7.43;;
18526;SDS011;9393;42.158;24.748;2022-10-22T14:53:44;15.33;;;9.03;;
18526;SDS011;9393;42.158;24.748;2022-10-22T14:56:49;14.03;;;7.33;;
18526;SDS011;9393;42.158;24.748;2022-10-22T14:59:52;15.17;;;7.80;;
18526;SDS011;9393;42.158;24.748;2022-10-22T15:02:58;12.37;;;7.50;;
18526;SDS011;9393;42.158;24.748;2022-10-22T15:06:05;14.07;;;8.87;;
18526;SDS011;9393;42.158;24.748;2022-10-22T15:09:09;16.53;;;9.27;;
18526;SDS011;9393;42.158;24.748;2022-10-22T15:12:13;12.13;;;7.83;;
18526;SDS011;9393;42.158;24.748;2022-10-22T15:15:16;14.57;;;8.20;;
18526;SDS011;9393;42.158;24.748;2022-10-22T15:18:25;20.53;;;8.17;;
18526;SDS011;9393;42.158;24.748;2022-10-22T15:21:29;13.40;;;8.40;;
18526;SDS011;9393;42.158;24.748;2022-10-22T15:24:33;13.80;;;8.10;;
18526;SDS011;9393;42.158;24.748;2022-10-22T15:27:37;14.47;;;9.50;;
18526;SDS011;9393;42.158;24.748;2022-10-22T15:30:42;27.17;;;10.93;;
18526;SDS011;9393;42.158;24.748;2022-10-22T15:33:47;24.37;;;11.90;;
18526;SDS011;9393;42.158;24.748;2022-10-22T15:36:52;19.80;;;11.47;;
18526;SDS011;9393;42.158;24.748;2022-10-22T15:39:57;16.67;;;11.70;;
18526;SDS011;9393;42.158;24.748;2022-10-22T15:43:01;19.03;;;12.07;;
18526;SDS011;9393;42.158;24.748;2022-10-22T15:46:07;26.23;;;12.80;;
18526;SDS011;9393;42.158;24.748;2022-10-22T15:49:14;18.33;;;12.10;;
18526;SDS011;9393;42.158;24.748;2022-10-22T15:52:19;24.93;;;16.40;;
18526;SDS011;9393;42.158;24.748;2022-10-22T15:55:23;24.03;;;14.13;;
18526;SDS011;9393;42.158;24.748;2022-10-22T15:58:27;22.53;;;12.73;;
18526;SDS011;9393;42.158;24.748;2022-10-22T16:01:31;24.70;;;14.17;;
18526;SDS011;9393;42.158;24.748;2022-10-22T16:04:38;20.07;;;12.77;;
18526;SDS011;9393;42.158;24.748;2022-10-22T16:07:42;22.30;;;12.60;;
18526;SDS011;9393;42.158;24.748;2022-10-22T16:10:46;24.10;;;12.97;;
18526;SDS011;9393;42.158;24.748;2022-10-22T16:13:51;24.50;;;13.97;;
18526;SDS011;9393;42.158;24.748;2022-10-22T16:16:56;22.40;;;12.80;;
18526;SDS011;9393;42.158;24.748;2022-10-22T16:20:01;34.77;;;14.57;;
18526;SDS011;9393;42.158;24.748;2022-10-22T16:23:06;28.63;;;14.40;;
18526;SDS011;9393;42.158;24.748;2022-10-22T16:26:09;27.10;;;17.63;;
18526;SDS011;9393;42.158;24.748;2022-10-22T16:29:15;33.77;;;17.70;;
18526;SDS011;9393;42.158;24.748;2022-10-22T16:32:19;30.57;;;15.53;;
18526;SDS011;9393;42.158;24.748;2022-10-22T16:35:24;31.13;;;13.70;;
18526;SDS011;9393;42.158;24.748;2022-10-22T16:38:28;28.90;;;13.00;;
18526;SDS011;9393;42.158;24.748;2022-10-22T16:41:31;29.57;;;12.90;;
18526;SDS011;9393;42.158;24.748;2022-10-22T16:44:37;33.43;;;14.17;;
18526;SDS011;9393;42.158;24.748;2022-10-22T16:47:40;22.80;;;14.60;;
18526;SDS011;9393;42.158;24.748;2022-10-22T16:50:48;30.03;;;15.80;;
18526;SDS011;9393;42.158;24.748;2022-10-22T16:53:52;33.20;;;15.47;;
18526;SDS011;9393;42.158;24.748;2022-10-22T16:56:56;32.27;;;16.47;;
18526;SDS011;9393;42.158;24.748;2022-10-22T17:00:00;37.03;;;19.43;;
18526;SDS011;9393;42.158;24.748;2022-10-22T17:03:04;41.00;;;18.97;;
18526;SDS011;9393;42.158;24.748;2022-10-22T17:06:09;65.70;;;38.47;;
18526;SDS011;9393;42.158;24.748;2022-10-22T17:09:13;76.97;;;47.73;;
18526;SDS011;9393;42.158;24.748;2022-10-22T17:12:17;36.70;;;18.67;;
18526;SDS011;9393;42.158;24.748;2022-10-22T17:15:21;36.27;;;17.13;;
18526;SDS011;9393;42.158;24.748;2022-10-22T17:18:25;33.80;;;17.53;;
18526;SDS011;9393;42.158;24.748;2022-10-22T17:21:30;35.27;;;19.00;;
18526;SDS011;9393;42.158;24.748;2022-10-22T17:24:34;32.83;;;18.80;;
18526;SDS011;9393;42.158;24.748;2022-10-22T17:27:39;31.87;;;18.33;;
18526;SDS011;9393;42.158;24.748;2022-10-22T17:30:44;43.53;;;19.97;;
18526;SDS011;9393;42.158;24.748;2022-10-22T17:33:48;36.43;;;18.07;;
18526;SDS011;9393;42.158;24.748;2022-10-22T17:36:55;35.20;;;17.70;;
18526;SDS011;9393;42.158;24.748;2022-10-22T17:40:00;35.43;;;17.63;;
18526;SDS011;9393;42.158;24.748;2022-10-22T17:43:05;33.10;;;18.23;;
18526;SDS011;9393;42.158;24.748;2022-10-22T17:46:09;30.17;;;16.37;;
18526;SDS011;9393;42.158;24.748;2022-10-22T17:49:17;33.10;;;17.00;;
18526;SDS011;9393;42.158;24.748;2022-10-22T17:52:23;31.97;;;16.77;;
18526;SDS011;9393;42.158;24.748;2022-10-22T17:55:27;31.40;;;16.47;;
18526;SDS011;9393;42.158;24.748;2022-10-22T17:58:31;30.60;;;18.13;;
18526;SDS011;9393;42.158;24.748;2022-10-22T18:01:35;35.30;;;17.10;;
18526;SDS011;9393;42.158;24.748;2022-10-22T18:04:44;37.17;;;18.30;;
18526;SDS011;9393;42.158;24.748;2022-10-22T18:07:52;31.13;;;17.77;;
18526;SDS011;9393;42.158;24.748;2022-10-22T18:10:56;32.47;;;18.07;;
18526;SDS011;9393;42.158;24.748;2022-10-22T18:14:00;28.57;;;16.50;;
18526;SDS011;9393;42.158;24.748;2022-10-22T18:17:06;36.07;;;17.27;;
18526;SDS011;9393;42.158;24.748;2022-10-22T18:20:11;39.97;;;19.70;;
18526;SDS011;9393;42.158;24.748;2022-10-22T18:23:16;36.37;;;18.27;;
18526;SDS011;9393;42.158;24.748;2022-10-22T18:26:21;29.97;;;16.57;;
18526;SDS011;9393;42.158;24.748;2022-10-22T18:29:27;33.37;;;16.50;;